»·PEaware :: WAT590 KSBA-KSLC

WAT590 :: KSBA-KSLC

FLIGHT INFORMATION

Flight Status: Arrived
Operator:
Walker Air Transport
More flights by this operator :: More flights under this callsign
Pilot: Anonymous 10623 (10623)
Aircraft: BOEING 727-200
(B722)
More flights by this aircraft type
Origin: KSBA Santa Barbara Mun
United States
Destination: KSLC Salt Lake City Intl
United States
More flights between these airports :: More routes between these airports
Route: FIM PMD DAG J9 MLF JAMMN5
File this flight plan on PilotEdge
Remarks: RMK / SIMBRIEF
Altitude:
(Current/Filed)
33,000ft
Speed:
(Current/Filed)
472kts
Departed: 09-Jan-22 11:31 AM
Arrived: 09-Jan-22 01:11 PM
Distance/Time
Traveled:
534nm/1:40
Distance/Time
To Go:
Arrived

Flight Plot

Page will automatically refresh every two minutes.

Flight plan parsing failed; only flown route is shown


Map Options




Map Legend


Flown Route
Filed Route
Departure Airport
Arrival Airport
Navaid (VOR, NDB)
Fix

Horizontal Profiles

Position Reports

Time Latitude Longitude Heading Altitude Ground
Speed
09-Jan-22 11:03 34.430302 -119.842563 247 25ft 0kts
09-Jan-22 11:04 34.430302 -119.842563 247 25ft 0kts
09-Jan-22 11:05 34.430302 -119.842563 247 25ft 0kts
09-Jan-22 11:06 34.430302 -119.842563 247 25ft 0kts
09-Jan-22 11:07 34.430302 -119.842563 247 25ft 0kts
09-Jan-22 11:08 34.430302 -119.842563 247 24ft 0kts
09-Jan-22 11:09 34.430302 -119.842563 247 25ft 0kts
09-Jan-22 11:10 34.430302 -119.842563 247 25ft 0kts
09-Jan-22 11:11 34.430302 -119.842563 247 25ft 0kts
09-Jan-22 11:12 34.430302 -119.842563 247 25ft 0kts
09-Jan-22 11:13 34.430302 -119.842563 247 25ft 0kts
09-Jan-22 11:14 34.430302 -119.842563 247 25ft 0kts
09-Jan-22 11:15 34.430302 -119.842563 247 25ft 0kts
09-Jan-22 11:16 34.430302 -119.842563 247 25ft 0kts
09-Jan-22 11:17 34.430302 -119.842563 247 25ft 0kts
09-Jan-22 11:18 34.430302 -119.842563 247 25ft 0kts
09-Jan-22 11:19 34.430302 -119.842563 247 25ft 0kts
09-Jan-22 11:20 34.430302 -119.842563 247 25ft 0kts
09-Jan-22 11:21 34.430302 -119.842563 247 25ft 0kts
09-Jan-22 11:22 34.430302 -119.842563 247 25ft 0kts
09-Jan-22 11:23 34.430302 -119.842563 247 25ft 0kts
09-Jan-22 11:24 34.430302 -119.842563 247 25ft 0kts
09-Jan-22 11:25 34.429591 -119.842400 149 25ft 10kts
09-Jan-22 11:26 34.428988 -119.838973 87 24ft 18kts
09-Jan-22 11:27 34.429026 -119.834969 105 24ft 8kts
09-Jan-22 11:28 34.428787 -119.834652 176 25ft 0kts
09-Jan-22 11:29 34.427952 -119.834959 260 24ft 3kts
09-Jan-22 11:30 34.427590 -119.850446 268 26ft 152kts
09-Jan-22 11:31 34.425100 -119.906312 265 1496ft 172kts
09-Jan-22 11:32 34.401990 -119.961727 188 2798ft 209kts
09-Jan-22 11:33 34.348120 -119.944094 155 4893ft 211kts
09-Jan-22 11:35 34.321885 -119.887322 79 6966ft 234kts
09-Jan-22 11:36 34.341919 -119.808845 76 9135ft 257kts
09-Jan-22 11:37 34.360598 -119.719462 79 10738ft 301kts
09-Jan-22 11:38 34.377694 -119.607995 81 11816ft 369kts
09-Jan-22 11:39 34.394041 -119.482027 81 14638ft 374kts
09-Jan-22 11:40 34.412053 -119.358215 79 17134ft 376kts
09-Jan-22 11:41 34.434047 -119.231656 78 18963ft 387kts
09-Jan-22 11:42 34.459390 -119.101493 77 20630ft 395kts
09-Jan-22 11:43 34.484281 -118.970267 78 22085ft 402kts
09-Jan-22 11:44 34.506997 -118.836671 79 23395ft 408kts
09-Jan-22 11:45 34.528096 -118.699776 79 24504ft 415kts
09-Jan-22 11:46 34.550176 -118.560126 78 25437ft 423kts
09-Jan-22 11:47 34.573779 -118.419231 77 26264ft 430kts
09-Jan-22 11:48 34.597148 -118.276343 78 27002ft 436kts
09-Jan-22 11:49 34.620336 -118.131813 78 27690ft 442kts
09-Jan-22 11:50 34.644122 -117.984314 75 28401ft 446kts
09-Jan-22 11:51 34.669777 -117.835118 77 29052ft 451kts
09-Jan-22 11:52 34.693787 -117.684802 78 29640ft 456kts
09-Jan-22 11:53 34.717195 -117.533201 78 30228ft 458kts
09-Jan-22 11:54 34.740207 -117.380967 78 30872ft 458kts
09-Jan-22 11:55 34.762857 -117.228752 78 31434ft 457kts
09-Jan-22 11:56 34.785356 -117.076582 78 31902ft 456kts
09-Jan-22 11:57 34.807808 -116.924916 78 32339ft 456kts
09-Jan-22 11:58 34.841739 -116.777094 74 32583ft 455kts
09-Jan-22 11:59 34.893469 -116.641674 33 32730ft 448kts
09-Jan-22 11:59 34.972457 -116.561174 43 33036ft 444kts
09-Jan-22 12:00 35.058668 -116.453298 46 33349ft 443kts
09-Jan-22 12:02 35.153663 -116.326102 46 33452ft 444kts
09-Jan-22 12:03 35.237274 -116.216355 46 33449ft 447kts
09-Jan-22 12:03 35.307925 -116.122858 46 33449ft 449kts
09-Jan-22 12:04 35.392702 -116.010183 46 33456ft 451kts
09-Jan-22 12:05 35.477093 -115.897351 46 33501ft 450kts
09-Jan-22 12:07 35.578884 -115.769994 31 33521ft 446kts
09-Jan-22 12:07 35.666925 -115.702582 34 33521ft 446kts
09-Jan-22 12:08 35.760191 -115.602897 47 33521ft 446kts
09-Jan-22 12:09 35.837198 -115.483381 51 33521ft 447kts
09-Jan-22 12:10 35.915357 -115.371935 45 33513ft 447kts
09-Jan-22 12:11 35.998224 -115.265554 45 33504ft 447kts
09-Jan-22 12:12 36.083191 -115.153858 45 33504ft 446kts
09-Jan-22 12:13 36.168917 -115.047141 45 33509ft 446kts
09-Jan-22 12:14 36.254481 -114.936166 45 33513ft 446kts
09-Jan-22 12:15 36.340058 -114.824397 45 33512ft 446kts
09-Jan-22 12:16 36.425183 -114.713475 45 33511ft 443kts
09-Jan-22 12:17 36.509927 -114.603365 45 33514ft 440kts
09-Jan-22 12:18 36.593771 -114.494232 45 33524ft 437kts
09-Jan-22 12:19 36.677384 -114.385101 45 33531ft 434kts
09-Jan-22 12:20 36.759430 -114.276714 45 33529ft 432kts
09-Jan-22 12:21 36.859556 -114.197750 31 33535ft 426kts
09-Jan-22 12:22 36.958471 -114.117098 34 33549ft 424kts
09-Jan-22 12:23 37.054205 -114.032056 35 33563ft 425kts
09-Jan-22 12:24 37.150740 -113.946222 34 33567ft 428kts
09-Jan-22 12:25 37.250387 -113.863294 32 33553ft 431kts
09-Jan-22 12:26 37.344280 -113.790880 30 33549ft 433kts
09-Jan-22 12:27 37.448359 -113.714372 29 33549ft 435kts
09-Jan-22 12:28 37.553139 -113.637676 30 33549ft 437kts
09-Jan-22 12:29 37.659318 -113.563640 19 33547ft 436kts
09-Jan-22 12:30 37.771108 -113.505519 25 33549ft 436kts
09-Jan-22 12:31 37.874956 -113.426727 34 33566ft 437kts
09-Jan-22 12:32 37.971779 -113.332929 37 33568ft 438kts
09-Jan-22 12:33 38.071270 -113.244081 31 33567ft 439kts
09-Jan-22 12:34 38.176050 -113.164781 30 33567ft 440kts
09-Jan-22 12:35 38.278914 -113.080837 32 33569ft 442kts
09-Jan-22 12:36 38.382644 -112.996601 24 33571ft 441kts
09-Jan-22 12:37 38.497463 -112.945309 19 33583ft 440kts
09-Jan-22 12:38 38.607872 -112.877168 24 33589ft 441kts
09-Jan-22 12:39 38.717656 -112.815085 22 33143ft 441kts
09-Jan-22 12:40 38.824573 -112.756753 22 31406ft 449kts
09-Jan-22 12:41 38.942286 -112.703734 17 29222ft 451kts
09-Jan-22 12:42 39.058184 -112.642099 23 27029ft 453kts
09-Jan-22 12:43 39.173181 -112.576053 21 25301ft 436kts
09-Jan-22 12:44 39.279759 -112.518403 21 24611ft 400kts
09-Jan-22 12:45 39.384687 -112.479701 9 24613ft 391kts
09-Jan-22 12:46 39.490418 -112.446148 13 24614ft 394kts
09-Jan-22 12:47 39.594256 -112.411091 13 23327ft 382kts
09-Jan-22 12:48 39.696786 -112.376955 12 20837ft 382kts
09-Jan-22 12:49 39.799367 -112.343370 13 18349ft 382kts
09-Jan-22 12:50 39.900114 -112.310056 13 16688ft 359kts
09-Jan-22 12:51 39.993023 -112.279596 13 15990ft 333kts
09-Jan-22 12:52 40.080532 -112.251004 12 15989ft 320kts
09-Jan-22 12:53 40.166745 -112.223071 12 15990ft 318kts
09-Jan-22 12:54 40.252275 -112.195333 12 15995ft 315kts
09-Jan-22 12:55 40.336902 -112.167470 13 16000ft 313kts
09-Jan-22 12:56 40.420647 -112.139347 13 15999ft 310kts
09-Jan-22 12:57 40.503710 -112.111276 13 15999ft 307kts
09-Jan-22 12:58 40.586353 -112.083362 12 15999ft 305kts
09-Jan-22 12:59 40.669165 -112.073713 354 15639ft 305kts
09-Jan-22 13:00 40.756299 -112.083164 354 14066ft 321kts
09-Jan-22 13:01 40.842685 -112.092626 354 11857ft 297kts
09-Jan-22 13:02 40.919936 -112.101281 354 9580ft 267kts
09-Jan-22 13:03 40.989557 -112.108251 40 7122ft 243kts
09-Jan-22 13:04 41.000359 -112.037358 100 6947ft 183kts
09-Jan-22 13:05 40.959833 -112.015413 181 6852ft 163kts
09-Jan-22 13:06 40.912834 -112.014391 175 6534ft 169kts
09-Jan-22 13:07 40.870395 -112.009191 174 5548ft 148kts
09-Jan-22 13:08 40.830181 -112.002060 174 4748ft 144kts
09-Jan-22 13:09 40.793320 -111.997632 174 4239ft 84kts
09-Jan-22 13:10 40.787242 -111.995509 125 4239ft 5kts
09-Jan-22 13:11 40.788533 -111.993895 353 4239ft 13kts
09-Jan-22 13:12 40.791114 -111.991517 86 4239ft 14kts
09-Jan-22 13:13 40.791585 -111.984887 84 4239ft 20kts

Navigation Log

Ident Type
Flight plan parsing failed, navigation log unavailable